Time;durP1;ratioP1;P1;durP2;ratioP2;P2;SDS_P1;SDS_P2;PMS_P1;PMS_P2;Temp;Humidity;BMP_temperature;BMP_pressure;BME280_temperature;BME280_humidity;BME280_pressure;Samples;Min_cycle;Max_cycle;Signal;HPM_P1;HPM_P2
2023/01/10 00:00:51;;;;;;;2.45;0.80;;;20.50;57.30;;;;;;5023809;28;20116;-65
2023/01/10 00:03:17;;;;;;;1.27;0.70;;;20.60;57.40;;;;;;5019941;28;20396;-65
2023/01/10 00:05:43;;;;;;;1.60;0.75;;;20.50;57.30;;;;;;5017312;28;20052;-65
2023/01/10 00:08:15;;;;;;;1.92;0.88;;;20.50;57.30;;;;;;5023305;28;20476;-65
2023/01/10 00:10:41;;;;;;;0.80;0.60;;;20.50;57.40;;;;;;5020730;28;20036;-65
2023/01/10 00:13:24;;;;;;;1.80;0.80;;;20.50;57.30;;;;;;5020660;28;20034;-65
2023/01/10 00:15:51;;;;;;;1.60;0.80;;;20.50;57.40;;;;;;5020108;28;20026;-64
2023/01/10 00:18:17;;;;;;;1.65;0.70;;;20.50;57.40;;;;;;5022336;28;20490;-64
2023/01/10 00:20:46;;;;;;;1.23;0.70;;;20.50;57.40;;;;;;5024702;28;20422;-65
2023/01/10 00:23:12;;;;;;;1.67;0.90;;;20.50;57.40;;;;;;5023955;28;20034;-65
2023/01/10 00:25:38;;;;;;;1.48;0.80;;;20.50;57.40;;;;;;5019034;28;20033;-66
2023/01/10 00:28:25;;;;;;;1.50;0.73;;;20.50;57.40;;;;;;5017710;28;20457;-65
2023/01/10 00:30:53;;;;;;;1.63;0.70;;;20.50;57.40;;;;;;5016498;28;20500;-64
2023/01/10 00:33:19;;;;;;;2.13;0.80;;;20.50;57.40;;;;;;5018594;28;20022;-64
2023/01/10 00:35:46;;;;;;;1.50;0.70;;;20.50;57.40;;;;;;5022394;28;20018;-65
2023/01/10 00:38:12;;;;;;;1.15;0.60;;;20.50;57.40;;;;;;5018471;28;20026;-64
2023/01/10 00:40:39;;;;;;;1.10;0.70;;;20.50;57.50;;;;;;5014797;28;20041;-65
2023/01/10 00:45:49;;;;;;;2.08;1.00;;;20.40;57.40;;;;;;5018252;28;20036;-65
2023/01/10 00:48:15;;;;;;;1.48;0.63;;;20.40;57.40;;;;;;5019076;28;20034;-64
2023/01/10 00:50:42;;;;;;;1.60;0.70;;;20.40;57.40;;;;;;5021580;28;20022;-65
2023/01/10 00:53:08;;;;;;;1.15;0.80;;;20.50;57.50;;;;;;5017684;28;20030;-64
2023/01/10 00:55:35;;;;;;;1.67;0.60;;;20.50;57.50;;;;;;5017754;28;20539;-64
2023/01/10 00:58:01;;;;;;;1.13;0.60;;;20.50;57.50;;;;;;5018177;28;20040;-64
2023/01/10 01:00:27;;;;;;;1.50;0.90;;;20.40;57.40;;;;;;5019808;28;20438;-65
2023/01/10 01:02:53;;;;;;;1.35;0.80;;;20.40;57.40;;;;;;5017723;28;20033;-64
2023/01/10 01:05:19;;;;;;;1.50;0.70;;;20.40;57.40;;;;;;5018334;28;20472;-65
2023/01/10 01:07:48;;;;;;;1.52;0.82;;;20.40;57.40;;;;;;5017648;28;20041;-65
2023/01/10 01:10:25;;;;;;;1.33;0.70;;;20.40;57.40;;;;;;5020586;28;20477;-65
2023/01/10 01:12:51;;;;;;;1.15;0.65;;;20.40;57.40;;;;;;5015664;28;20367;-64
2023/01/10 01:15:17;;;;;;;1.63;0.98;;;20.40;57.50;;;;;;5026982;28;20038;-65
2023/01/10 01:17:42;;;;;;;1.40;0.75;;;20.40;57.50;;;;;;5021158;28;20108;-66
2023/01/10 01:20:09;;;;;;;1.50;0.65;;;20.40;57.50;;;;;;5018881;28;20362;-65
2023/01/10 01:22:35;;;;;;;1.10;0.60;;;20.40;57.50;;;;;;5017708;28;20037;-65
2023/01/10 01:25:00;;;;;;;1.73;0.82;;;20.40;57.50;;;;;;5019560;28;20032;-65
2023/01/10 01:27:26;;;;;;;2.38;0.70;;;20.40;57.50;;;;;;5018388;28;20029;-66
2023/01/10 01:29:52;;;;;;;0.73;0.60;;;20.40;57.50;;;;;;5019536;28;20121;-65
2023/01/10 01:32:17;;;;;;;0.80;0.60;;;20.40;57.50;;;;;;5018747;28;20389;-65
2023/01/10 01:34:43;;;;;;;0.93;0.60;;;20.40;57.50;;;;;;5025626;28;20032;-65
2023/01/10 01:37:09;;;;;;;1.23;0.70;;;20.30;57.50;;;;;;5022696;28;20048;-65
2023/01/10 01:39:34;;;;;;;1.60;0.60;;;20.40;57.50;;;;;;5017618;28;20061;-65
2023/01/10 01:42:01;;;;;;;1.67;0.60;;;20.30;57.50;;;;;;5017535;28;20491;-64
2023/01/10 01:44:32;;;;;;;1.38;0.70;;;20.30;57.50;;;;;;5014358;28;20553;-65
2023/01/10 01:47:11;;;;;;;0.85;0.57;;;20.30;57.50;;;;;;5019576;28;20042;-65
2023/01/10 01:49:42;;;;;;;1.30;0.63;;;20.30;57.50;;;;;;5016276;28;20384;-64
2023/01/10 01:52:17;;;;;;;0.95;0.60;;;20.30;57.50;;;;;;5017575;28;20029;-64
2023/01/10 01:54:43;;;;;;;0.93;0.70;;;20.30;57.50;;;;;;5020214;28;20040;-65
2023/01/10 01:57:17;;;;;;;1.38;0.60;;;20.30;57.50;;;;;;5022365;28;20477;-65
2023/01/10 01:59:46;;;;;;;1.00;0.60;;;20.30;57.50;;;;;;5018688;28;20052;-66
2023/01/10 02:02:37;;;;;;;1.15;0.73;;;20.30;57.50;;;;;;5017523;28;20026;-67
2023/01/10 02:05:06;;;;;;;0.75;0.50;;;20.30;57.50;;;;;;5019123;28;20041;-65
2023/01/10 02:07:36;;;;;;;1.70;0.73;;;20.30;57.50;;;;;;5016084;28;20458;-65
2023/01/10 02:10:07;;;;;;;0.90;0.50;;;20.30;57.50;;;;;;5017592;28;20385;-65
2023/01/10 02:12:33;;;;;;;1.05;0.70;;;20.30;57.50;;;;;;5019530;28;20038;-64
2023/01/10 02:14:59;;;;;;;1.15;0.70;;;20.30;57.50;;;;;;5018867;28;20029;-65
2023/01/10 02:17:24;;;;;;;1.20;0.73;;;20.20;57.50;;;;;;5017247;28;20026;-64
2023/01/10 02:20:01;;;;;;;0.82;0.60;;;20.20;57.50;;;;;;5017354;28;20117;-64
2023/01/10 02:22:38;;;;;;;1.13;0.70;;;20.20;57.50;;;;;;5016784;28;20401;-65
2023/01/10 02:25:34;;;;;;;1.20;0.50;;;20.20;57.50;;;;;;5014576;28;20393;-65
2023/01/10 02:28:34;;;;;;;0.90;0.52;;;20.20;57.50;;;;;;5020122;28;20037;-65
2023/01/10 02:31:05;;;;;;;;;;;20.20;57.50;;;;;;5021683;28;20531;-65
2023/01/10 02:33:42;;;;;;;1.05;0.57;;;20.20;57.50;;;;;;5023005;28;20028;-65
2023/01/10 02:36:36;;;;;;;0.88;0.55;;;20.20;57.50;;;;;;5019308;28;20057;-65
2023/01/10 02:39:11;;;;;;;1.65;0.70;;;20.20;57.50;;;;;;5017724;28;20509;-65
2023/01/10 02:41:57;;;;;;;0.85;0.60;;;20.20;57.50;;;;;;5014939;28;20651;-64
2023/01/10 02:44:48;;;;;;;0.65;0.50;;;20.20;57.50;;;;;;5032104;28;20053;-65
2023/01/10 02:47:14;;;;;;;0.80;0.50;;;20.20;57.50;;;;;;5018877;28;20512;-64
2023/01/10 02:49:50;;;;;;;1.00;0.55;;;20.20;57.50;;;;;;5019217;28;20030;-65
2023/01/10 02:52:25;;;;;;;1.00;0.52;;;20.20;57.60;;;;;;5017450;28;20030;-65
2023/01/10 02:54:57;;;;;;;0.65;0.50;;;20.20;57.50;;;;;;5032785;28;20026;-65
2023/01/10 02:57:48;;;;;;;0.90;0.50;;;20.20;57.60;;;;;;5020147;28;20029;-64
2023/01/10 03:00:24;;;;;;;1.20;0.60;;;20.10;57.60;;;;;;5019028;28;20426;-65
2023/01/10 03:03:00;;;;;;;1.08;0.60;;;20.10;57.50;;;;;;5018192;28;20030;-64
2023/01/10 03:05:50;;;;;;;1.23;0.70;;;20.20;57.60;;;;;;5014959;28;20036;-65
2023/01/10 03:08:34;;;;;;;0.88;0.65;;;20.10;57.60;;;;;;5019181;28;20044;-65
2023/01/10 03:11:03;;;;;;;1.42;0.60;;;20.10;57.60;;;;;;5039678;28;20334;-66
2023/01/10 03:13:45;;;;;;;1.00;0.50;;;20.10;57.60;;;;;;5023152;28;20449;-65
2023/01/10 03:16:22;;;;;;;1.70;0.77;;;20.10;57.60;;;;;;5022998;28;20017;-65
2023/01/10 03:19:16;;;;;;;1.13;0.60;;;20.10;57.60;;;;;;5021945;28;20033;-64
2023/01/10 03:21:43;;;;;;;0.98;0.60;;;20.10;57.60;;;;;;5020259;28;20038;-64
2023/01/10 03:24:21;;;;;;;0.70;0.50;;;20.10;57.60;;;;;;5021637;28;20034;-64
2023/01/10 03:27:18;;;;;;;0.90;0.60;;;20.10;57.60;;;;;;5033370;28;20402;-65
2023/01/10 03:30:20;;;;;;;2.08;0.68;;;20.10;57.60;;;;;;5037917;28;20493;-64
2023/01/10 03:32:46;;;;;;;1.30;0.60;;;20.10;57.70;;;;;;5031066;28;20041;-66
2023/01/10 03:35:13;;;;;;;0.90;0.60;;;20.10;57.60;;;;;;5021170;28;20330;-65
2023/01/10 03:38:01;;;;;;;0.45;0.40;;;20.10;57.60;;;;;;5018285;28;20037;-65
2023/01/10 03:40:37;;;;;;;0.82;0.55;;;20.10;57.60;;;;;;5019651;28;20029;-65
2023/01/10 03:45:59;;;;;;;0.63;0.50;;;20.10;57.60;;;;;;5018778;28;20069;-65
2023/01/10 03:48:31;;;;;;;1.08;0.70;;;20.00;57.50;;;;;;5017531;28;20022;-64
2023/01/10 03:51:01;;;;;;;0.82;0.50;;;20.10;57.60;;;;;;5020242;28;20022;-64
2023/01/10 03:53:27;;;;;;;0.60;0.50;;;20.10;57.60;;;;;;5020136;28;20033;-65
2023/01/10 03:55:53;;;;;;;1.33;0.70;;;20.10;57.60;;;;;;5020259;28;20030;-64
2023/01/10 03:58:20;;;;;;;1.05;0.60;;;20.00;57.50;;;;;;5021706;28;20138;-64
2023/01/10 04:00:46;;;;;;;0.77;0.50;;;20.00;57.60;;;;;;5020037;28;20413;-66
2023/01/10 04:03:12;;;;;;;0.75;0.52;;;20.00;57.60;;;;;;5024020;28;20044;-65
2023/01/10 04:05:38;;;;;;;1.33;0.50;;;20.00;57.60;;;;;;5020497;28;20025;-65
2023/01/10 04:08:03;;;;;;;0.65;0.40;;;20.00;57.60;;;;;;5026153;28;20021;-64
2023/01/10 04:10:29;;;;;;;0.80;0.45;;;20.00;57.60;;;;;;5020752;28;20092;-65
2023/01/10 04:12:59;;;;;;;0.98;0.50;;;20.00;57.60;;;;;;5018089;28;20029;-65
2023/01/10 04:15:24;;;;;;;0.55;0.50;;;20.00;57.70;;;;;;5019059;28;20030;-64
2023/01/10 04:17:50;;;;;;;1.40;0.60;;;20.00;58.20;;;;;;5017116;28;20025;-65
2023/01/10 04:20:16;;;;;;;0.68;0.50;;;20.00;57.60;;;;;;5019478;28;20441;-65
2023/01/10 04:22:43;;;;;;;1.23;0.70;;;20.00;57.70;;;;;;5020950;28;20029;-65
2023/01/10 04:25:09;;;;;;;0.80;0.50;;;20.00;57.70;;;;;;5018592;28;20618;-65
2023/01/10 04:27:34;;;;;;;0.85;0.50;;;19.90;57.70;;;;;;5019995;28;20069;-65
2023/01/10 04:30:00;;;;;;;0.68;0.50;;;20.00;57.70;;;;;;5022897;28;20029;-65
2023/01/10 04:32:25;;;;;;;0.50;0.50;;;20.00;57.70;;;;;;5020321;28;20026;-65
2023/01/10 04:34:52;;;;;;;0.57;0.50;;;20.00;57.70;;;;;;5020156;28;20104;-65
2023/01/10 04:37:19;;;;;;;1.15;0.70;;;19.90;57.70;;;;;;5019315;28;20077;-65
2023/01/10 04:39:45;;;;;;;0.60;0.50;;;19.90;57.70;;;;;;5017703;28;20240;-65
2023/01/10 04:42:10;;;;;;;1.20;0.70;;;20.00;57.80;;;;;;5016301;28;20030;-64
2023/01/10 04:44:36;;;;;;;1.08;0.60;;;19.90;57.70;;;;;;5022636;28;20786;-65
2023/01/10 04:47:02;;;;;;;1.08;0.60;;;20.00;57.80;;;;;;5022415;28;20124;-66
2023/01/10 04:49:27;;;;;;;0.63;0.50;;;19.90;57.80;;;;;;5022163;28;20198;-65
2023/01/10 04:51:53;;;;;;;0.47;0.40;;;19.90;57.80;;;;;;5022033;28;20111;-64
2023/01/10 04:54:20;;;;;;;0.70;0.40;;;20.00;57.90;;;;;;5018998;28;20061;-65
2023/01/10 04:56:46;;;;;;;1.00;0.60;;;19.90;57.80;;;;;;5016550;28;20101;-65
2023/01/10 04:59:11;;;;;;;1.30;0.60;;;19.90;57.90;;;;;;5019433;28;20045;-66
2023/01/10 05:01:37;;;;;;;0.95;0.50;;;19.90;57.80;;;;;;5021256;28;20117;-64
2023/01/10 05:04:04;;;;;;;0.80;0.40;;;19.90;57.90;;;;;;5018138;28;20485;-65
2023/01/10 05:06:30;;;;;;;0.52;0.50;;;19.90;57.90;;;;;;5023259;28;20477;-65
2023/01/10 05:08:56;;;;;;;1.08;0.50;;;19.90;57.90;;;;;;5019274;28;20113;-66
2023/01/10 05:11:22;;;;;;;0.68;0.50;;;19.90;57.90;;;;;;5016937;28;20212;-65
2023/01/10 05:13:48;;;;;;;0.77;0.50;;;19.90;57.90;;;;;;5016670;28;20248;-65
2023/01/10 05:16:14;;;;;;;0.40;0.40;;;19.90;58.00;;;;;;5021057;28;20041;-66
2023/01/10 05:18:40;;;;;;;0.63;0.50;;;19.90;58.00;;;;;;5023813;28;20057;-65
2023/01/10 05:21:08;;;;;;;1.30;0.50;;;19.90;58.00;;;;;;5020339;28;20056;-66
2023/01/10 05:23:34;;;;;;;0.98;0.68;;;19.90;58.00;;;;;;5020350;28;20069;-65
2023/01/10 05:26:11;;;;;;;0.93;0.40;;;19.90;58.00;;;;;;5016102;28;20058;-65
2023/01/10 05:28:38;;;;;;;0.63;0.40;;;19.90;58.00;;;;;;5015075;28;20484;-65
2023/01/10 05:31:05;;;;;;;0.57;0.40;;;19.90;58.00;;;;;;5036802;28;20584;-65
2023/01/10 05:33:31;;;;;;;0.70;0.43;;;19.90;58.00;;;;;;5018280;28;20025;-65
2023/01/10 05:35:59;;;;;;;0.70;0.50;;;19.80;57.90;;;;;;5022871;28;20029;-65
2023/01/10 05:38:25;;;;;;;0.55;0.40;;;19.90;58.00;;;;;;5018800;28;20064;-65
2023/01/10 05:40:55;;;;;;;0.63;0.43;;;19.90;58.00;;;;;;5018678;28;20426;-66
2023/01/10 05:43:20;;;;;;;1.00;0.50;;;19.80;58.00;;;;;;5017808;28;20026;-65
2023/01/10 05:45:46;;;;;;;0.65;0.40;;;19.80;58.00;;;;;;5019927;28;20461;-65
2023/01/10 05:48:11;;;;;;;0.73;0.50;;;19.90;58.10;;;;;;5022383;28;20432;-65
2023/01/10 05:50:37;;;;;;;0.70;0.40;;;19.80;58.00;;;;;;5018399;28;20160;-65
2023/01/10 05:53:04;;;;;;;0.40;0.40;;;19.90;58.10;;;;;;5018199;28;20029;-66
2023/01/10 05:55:30;;;;;;;0.82;0.45;;;19.80;58.00;;;;;;5016798;28;20021;-65
2023/01/10 05:57:56;;;;;;;0.43;0.40;;;19.80;58.00;;;;;;5019214;28;20037;-65
2023/01/10 06:00:22;;;;;;;0.38;0.38;;;19.80;58.10;;;;;;5016376;28;20026;-65
2023/01/10 06:02:47;;;;;;;0.70;0.50;;;19.80;58.10;;;;;;5018096;28;20033;-66
2023/01/10 06:05:13;;;;;;;0.90;0.50;;;19.80;58.10;;;;;;5024429;28;20074;-65
2023/01/10 06:07:39;;;;;;;0.63;0.50;;;19.80;58.10;;;;;;5021942;28;20029;-65
2023/01/10 06:10:05;;;;;;;1.48;0.70;;;19.80;58.10;;;;;;5023402;28;20029;-65
2023/01/10 06:12:30;;;;;;;0.85;0.52;;;19.80;58.10;;;;;;5020327;28;20127;-65
2023/01/10 06:14:56;;;;;;;1.13;0.60;;;19.80;58.10;;;;;;5021250;28;20392;-65
2023/01/10 06:17:21;;;;;;;0.50;0.43;;;19.80;58.10;;;;;;5017984;28;20083;-65
2023/01/10 06:19:47;;;;;;;0.80;0.45;;;19.80;58.10;;;;;;5018815;28;20424;-65
2023/01/10 06:22:13;;;;;;;1.80;0.60;;;19.80;58.10;;;;;;5019765;28;20148;-65
2023/01/10 06:24:38;;;;;;;0.75;0.50;;;19.80;58.10;;;;;;5017016;28;20036;-65
2023/01/10 06:27:04;;;;;;;1.23;0.65;;;19.80;58.10;;;;;;5022197;28;20087;-67
2023/01/10 06:29:30;;;;;;;1.88;0.70;;;19.80;58.20;;;;;;5018944;28;20026;-64
2023/01/10 06:31:56;;;;;;;1.35;0.70;;;19.80;58.10;;;;;;5019629;28;20106;-65
2023/01/10 06:34:21;;;;;;;1.10;0.50;;;19.80;58.10;;;;;;5014862;28;20153;-67
2023/01/10 06:36:47;;;;;;;1.02;0.60;;;19.80;58.10;;;;;;5016769;28;20124;-67
2023/01/10 06:39:13;;;;;;;1.15;0.50;;;19.80;58.70;;;;;;5020195;28;20949;-67
2023/01/10 06:41:38;;;;;;;0.98;0.60;;;19.90;59.20;;;;;;5019633;28;20029;-67
2023/01/10 06:44:04;;;;;;;2.53;0.70;;;20.00;59.30;;;;;;5024918;28;20036;-67
2023/01/10 06:46:30;;;;;;;1.45;0.70;;;20.20;59.30;;;;;;5025979;28;20495;-68
2023/01/10 06:48:55;;;;;;;1.58;0.70;;;20.40;59.20;;;;;;5024681;28;20361;-67
2023/01/10 06:51:21;;;;;;;1.55;0.70;;;20.50;59.10;;;;;;5025338;28;20079;-67
2023/01/10 06:53:46;;;;;;;1.58;0.70;;;20.60;58.80;;;;;;5020817;28;20021;-68
2023/01/10 06:56:12;;;;;;;1.48;0.70;;;20.80;58.60;;;;;;5031000;28;20037;-67
2023/01/10 06:58:38;;;;;;;1.88;0.80;;;20.90;58.30;;;;;;5018639;28;20137;-67
2023/01/10 07:01:12;;;;;;;2.25;0.75;;;21.00;58.20;;;;;;5022002;28;20444;-67
2023/01/10 07:03:39;;;;;;;2.38;0.82;;;21.20;58.00;;;;;;5028258;28;20057;-67
2023/01/10 07:06:08;;;;;;;1.40;0.80;;;21.30;57.80;;;;;;5025453;28;20036;-68
2023/01/10 07:08:35;;;;;;;1.63;0.73;;;21.40;57.30;;;;;;5023579;28;20018;-68
2023/01/10 07:11:01;;;;;;;2.10;0.90;;;21.50;56.70;;;;;;5020832;28;20053;-68
2023/01/10 07:13:27;;;;;;;1.73;0.80;;;21.70;56.40;;;;;;5021645;28;20022;-68
2023/01/10 07:16:01;;;;;;;2.45;1.05;;;21.70;56.10;;;;;;5019620;28;20079;-69
2023/01/10 07:18:26;;;;;;;2.67;1.02;;;21.90;55.90;;;;;;5018855;28;20057;-68
2023/01/10 07:20:52;;;;;;;2.25;0.93;;;22.00;55.70;;;;;;5018133;28;20127;-68
2023/01/10 07:23:17;;;;;;;1.80;0.90;;;22.10;55.70;;;;;;5021881;28;20044;-67
2023/01/10 07:25:43;;;;;;;1.13;0.70;;;22.20;55.90;;;;;;5024908;28;20089;-68
2023/01/10 07:28:08;;;;;;;1.48;0.80;;;22.40;55.60;;;;;;5023700;28;20018;-69
2023/01/10 07:30:34;;;;;;;1.92;0.80;;;22.50;55.20;;;;;;5022219;28;20018;-68
2023/01/10 07:33:02;;;;;;;1.85;0.80;;;22.40;55.00;;;;;;5020769;28;20026;-66
2023/01/10 07:35:28;;;;;;;2.30;1.02;;;22.40;54.60;;;;;;5020631;28;20029;-67
2023/01/10 07:37:58;;;;;;;3.03;1.10;;;22.60;54.40;;;;;;5019366;28;20156;-68
2023/01/10 07:40:24;;;;;;;2.30;0.90;;;22.80;54.20;;;;;;5021126;28;20049;-68
2023/01/10 07:42:56;;;;;;;3.33;1.13;;;23.00;53.90;;;;;;5025478;28;20060;-68
2023/01/10 07:45:21;;;;;;;2.33;1.00;;;23.10;53.40;;;;;;5025934;28;20361;-69
2023/01/10 07:47:47;;;;;;;3.45;1.00;;;23.30;53.00;;;;;;5023434;28;20033;-69
2023/01/10 07:50:12;;;;;;;1.40;0.70;;;23.30;53.20;;;;;;5019720;28;20445;-69
2023/01/10 07:52:38;;;;;;;2.83;0.90;;;23.30;53.10;;;;;;5021589;28;20116;-69
2023/01/10 07:55:04;;;;;;;2.10;0.90;;;23.20;53.00;;;;;;5018681;28;20033;-69
2023/01/10 07:57:30;;;;;;;1.75;1.00;;;23.20;52.90;;;;;;5018571;28;20053;-68
2023/01/10 07:59:56;;;;;;;2.80;1.10;;;23.20;52.90;;;;;;5022815;28;20030;-68
2023/01/10 08:02:21;;;;;;;3.25;1.10;;;23.20;52.90;;;;;;5028934;28;20040;-69
2023/01/10 08:04:47;;;;;;;2.15;1.00;;;23.20;52.90;;;;;;5022528;28;20111;-70
2023/01/10 08:07:12;;;;;;;2.92;1.10;;;23.20;52.90;;;;;;5020064;28;20026;-68
2023/01/10 08:09:38;;;;;;;2.08;1.10;;;23.10;52.80;;;;;;5020165;28;20481;-68
2023/01/10 08:12:03;;;;;;;1.50;0.82;;;23.20;52.80;;;;;;5021116;28;20025;-66
2023/01/10 08:14:29;;;;;;;1.95;0.85;;;23.10;52.80;;;;;;5022519;28;20422;-67
2023/01/10 08:16:55;;;;;;;2.00;1.00;;;23.10;52.80;;;;;;5017635;28;20030;-66
2023/01/10 08:19:20;;;;;;;1.55;0.88;;;23.10;53.00;;;;;;5022047;28;20034;-67
2023/01/10 08:21:46;;;;;;;3.95;1.02;;;23.10;53.00;;;;;;5017756;28;20061;-68
2023/01/10 08:24:11;;;;;;;1.98;0.90;;;23.10;53.00;;;;;;5018502;28;20034;-65
2023/01/10 08:26:37;;;;;;;2.17;1.00;;;23.10;53.00;;;;;;5019659;28;20049;-66
2023/01/10 08:29:02;;;;;;;2.08;0.93;;;23.20;53.30;;;;;;5017379;28;20033;-67
2023/01/10 08:31:28;;;;;;;2.70;0.90;;;23.20;53.20;;;;;;5019428;28;20060;-67
2023/01/10 08:33:55;;;;;;;2.78;0.90;;;23.20;53.40;;;;;;5023927;28;20191;-66
2023/01/10 08:36:21;;;;;;;2.20;0.98;;;23.20;53.50;;;;;;5022141;28;20477;-67
2023/01/10 08:38:47;;;;;;;1.77;0.93;;;23.20;53.50;;;;;;5018686;28;20033;-67
2023/01/10 08:41:13;;;;;;;2.30;1.20;;;23.20;53.20;;;;;;5022456;28;20030;-67
2023/01/10 08:43:39;;;;;;;1.92;0.80;;;23.20;53.00;;;;;;5038166;28;20033;-66
2023/01/10 08:46:06;;;;;;;2.45;1.10;;;23.20;53.10;;;;;;5021473;28;20037;-65
2023/01/10 08:48:31;;;;;;;2.25;1.10;;;23.20;53.30;;;;;;5019863;28;20076;-67
2023/01/10 08:50:57;;;;;;;3.35;1.00;;;23.20;53.60;;;;;;5034104;28;20060;-66
2023/01/10 08:53:23;;;;;;;1.33;0.80;;;23.20;53.80;;;;;;5017374;28;20034;-66
2023/01/10 08:55:48;;;;;;;2.17;0.90;;;23.20;53.40;;;;;;5022642;28;20060;-67
2023/01/10 08:58:14;;;;;;;1.67;0.90;;;23.20;53.20;;;;;;5016300;28;20449;-66
2023/01/10 09:00:40;;;;;;;2.85;1.00;;;23.20;53.50;;;;;;5021386;28;20112;-67
2023/01/10 09:03:07;;;;;;;2.22;1.00;;;23.20;53.50;;;;;;5016932;28;20454;-68
2023/01/10 09:05:33;;;;;;;1.38;0.90;;;23.20;53.20;;;;;;5020213;28;20057;-68
2023/01/10 09:08:01;;;;;;;2.05;0.90;;;23.20;53.00;;;;;;5016955;28;20462;-67
2023/01/10 09:10:28;;;;;;;1.63;0.80;;;23.20;52.90;;;;;;5019338;28;20112;-67
2023/01/10 09:12:54;;;;;;;1.92;0.90;;;23.20;52.90;;;;;;5017219;28;20082;-71
2023/01/10 09:15:34;;;;;;;2.08;0.90;;;23.20;53.00;;;;;;5019504;28;20033;-68
2023/01/10 09:18:05;;;;;;;2.30;1.00;;;23.20;52.90;;;;;;5019539;28;20040;-67
2023/01/10 09:20:33;;;;;;;1.60;0.90;;;23.20;52.90;;;;;;5017398;28;20410;-68
2023/01/10 09:23:10;;;;;;;2.42;0.90;;;23.20;52.80;;;;;;5017844;28;20029;-67
2023/01/10 09:25:36;;;;;;;2.00;0.98;;;23.20;52.70;;;;;;5019905;28;20055;-68
2023/01/10 09:28:03;;;;;;;2.42;1.00;;;23.20;52.70;;;;;;5019302;28;20051;-66
2023/01/10 09:30:29;;;;;;;2.25;1.00;;;23.20;53.10;;;;;;5016142;28;20040;-70
2023/01/10 09:32:56;;;;;;;1.35;0.77;;;23.20;52.90;;;;;;5021796;28;20370;-67
2023/01/10 09:35:23;;;;;;;1.80;0.85;;;23.20;53.00;;;;;;5022020;28;20430;-67
2023/01/10 09:37:52;;;;;;;2.72;1.08;;;23.20;54.00;;;;;;5022151;28;20488;-66
2023/01/10 09:40:22;;;;;;;2.47;0.90;;;23.20;53.70;;;;;;5017551;28;20033;-67
2023/01/10 09:42:59;;;;;;;2.03;0.90;;;23.20;53.30;;;;;;5017636;28;20044;-67
2023/01/10 09:45:37;;;;;;;3.00;1.05;;;23.20;53.20;;;;;;5025339;28;20045;-66
2023/01/10 09:48:07;;;;;;;1.58;0.80;;;23.20;53.20;;;;;;5033322;28;20037;-68
2023/01/10 09:51:03;;;;;;;2.25;0.95;;;23.20;53.20;;;;;;5018421;28;20130;-67
2023/01/10 09:53:32;;;;;;;2.85;1.30;;;23.20;53.10;;;;;;5016061;28;20040;-69
2023/01/10 09:55:59;;;;;;;2.35;1.00;;;23.20;53.60;;;;;;5018357;28;20060;-65
2023/01/10 09:58:28;;;;;;;2.13;1.00;;;23.20;53.40;;;;;;5016058;28;20029;-68
2023/01/10 10:00:59;;;;;;;1.55;0.82;;;23.20;54.30;;;;;;5015275;28;20515;-68
2023/01/10 10:03:33;;;;;;;2.00;0.80;;;23.20;53.70;;;;;;5019609;28;20044;-71
2023/01/10 10:05:59;;;;;;;2.65;1.00;;;23.20;54.50;;;;;;5035352;28;20025;-67
2023/01/10 10:08:25;;;;;;;2.95;0.90;;;23.20;53.40;;;;;;5015749;28;20030;-68
2023/01/10 10:11:27;;;;;;;1.55;0.80;;;23.20;53.10;;;;;;5018178;28;20033;-67
2023/01/10 10:14:05;;;;;;;1.85;0.82;;;23.20;53.00;;;;;;5019492;28;20040;-68
2023/01/10 10:16:58;;;;;;;1.92;1.10;;;23.20;53.00;;;;;;5023341;28;20389;-67
2023/01/10 10:19:54;;;;;;;1.98;0.90;;;23.20;53.20;;;;;;5023711;28;20556;-67
2023/01/10 10:22:41;;;;;;;2.53;1.10;;;23.20;53.00;;;;;;5022167;28;20092;-67
2023/01/10 10:25:28;;;;;;;2.45;0.82;;;23.20;53.50;;;;;;5035766;28;20061;-67
2023/01/10 10:28:17;;;;;;;1.88;1.00;;;23.20;53.40;;;;;;5026571;28;20508;-65
2023/01/10 10:31:01;;;;;;;2.08;0.80;;;23.20;53.40;;;;;;5021191;28;20183;-66
2023/01/10 10:33:52;;;;;;;2.72;1.10;;;23.20;53.80;;;;;;5017921;28;20025;-67
2023/01/10 10:36:25;;;;;;;2.15;1.08;;;23.20;53.10;;;;;;5025900;28;20440;-67
2023/01/10 10:38:54;;;;;;;2.08;1.00;;;23.20;53.00;;;;;;5022116;28;20021;-68
2023/01/10 10:41:35;;;;;;;1.70;0.90;;;23.20;52.90;;;;;;5024108;28;20033;-68
2023/01/10 10:44:26;;;;;;;1.30;0.88;;;23.20;52.70;;;;;;5025512;28;20022;-68
2023/01/10 10:46:53;;;;;;;1.38;0.80;;;23.20;52.60;;;;;;5025589;28;20030;-68
2023/01/10 10:49:40;;;;;;;1.40;0.80;;;23.20;52.70;;;;;;5022380;28;20120;-68
2023/01/10 10:52:33;;;;;;;1.85;0.80;;;23.20;52.60;;;;;;5018247;28;20049;-67
2023/01/10 10:54:59;;;;;;;1.10;0.73;;;23.20;52.80;;;;;;5022868;28;20037;-67
2023/01/10 10:57:28;;;;;;;2.72;1.20;;;23.20;52.90;;;;;;5020107;28;20030;-68
2023/01/10 10:59:55;;;;;;;2.05;0.98;;;23.20;52.80;;;;;;5027948;28;20034;-67
2023/01/10 11:02:27;;;;;;;1.88;0.82;;;23.20;52.90;;;;;;5019364;28;20485;-68
2023/01/10 11:05:00;;;;;;;1.65;0.98;;;23.20;53.10;;;;;;5022081;28;20026;-67
2023/01/10 11:07:33;;;;;;;2.00;0.98;;;23.20;52.90;;;;;;5035075;28;20377;-68
2023/01/10 11:10:12;;;;;;;1.30;0.80;;;23.20;53.30;;;;;;5021697;28;20040;-67
2023/01/10 11:12:43;;;;;;;1.90;0.98;;;23.20;53.10;;;;;;5019478;28;20046;-67
2023/01/10 11:15:10;;;;;;;1.83;0.90;;;23.20;53.00;;;;;;5020319;28;20466;-66
2023/01/10 11:17:39;;;;;;;1.08;0.73;;;23.20;52.70;;;;;;5022948;28;20017;-68
2023/01/10 11:20:16;;;;;;;3.00;0.85;;;23.20;52.90;;;;;;5022073;28;20484;-67
2023/01/10 11:22:54;;;;;;;1.02;0.80;;;23.20;52.60;;;;;;5023634;28;20119;-67
2023/01/10 11:25:21;;;;;;;0.98;0.80;;;23.20;52.60;;;;;;5022201;28;20151;-68
2023/01/10 11:27:53;;;;;;;1.48;0.73;;;23.20;52.60;;;;;;5018841;28;20116;-68
2023/01/10 11:30:22;;;;;;;2.20;1.00;;;23.20;52.70;;;;;;5022612;28;20492;-68
2023/01/10 11:32:52;;;;;;;1.20;0.80;;;23.20;52.70;;;;;;5021356;28;20021;-67
2023/01/10 11:35:26;;;;;;;1.65;0.90;;;23.20;52.60;;;;;;5019024;28;20022;-68
2023/01/10 11:38:23;;;;;;;1.17;0.80;;;23.20;52.40;;;;;;5023129;28;20030;-67
2023/01/10 11:41:03;;;;;;;1.17;0.70;;;23.20;52.50;;;;;;5020000;28;20434;-67
2023/01/10 11:43:39;;;;;;;1.80;0.90;;;23.20;52.60;;;;;;5019737;28;20049;-65
2023/01/10 11:46:20;;;;;;;2.58;1.30;;;23.20;52.50;;;;;;5032344;28;20330;-65
2023/01/10 11:49:13;;;;;;;2.75;1.13;;;23.20;51.70;;;;;;5023686;28;20477;-66
2023/01/10 11:51:55;;;;;;;2.08;1.10;;;23.20;51.50;;;;;;5021410;28;20346;-66
2023/01/10 11:54:24;;;;;;;2.47;1.38;;;23.20;51.40;;;;;;5021649;28;20076;-66
2023/01/10 11:57:15;;;;;;;2.83;1.20;;;23.10;51.30;;;;;;5020371;28;20399;-66
2023/01/10 12:00:11;;;;;;;2.08;1.10;;;23.10;51.30;;;;;;5017625;28;20033;-66
2023/01/10 12:02:42;;;;;;;2.40;1.10;;;23.10;51.30;;;;;;5012252;28;20037;-66
2023/01/10 12:05:19;;;;;;;2.03;1.10;;;23.00;51.70;;;;;;5036448;28;20443;-66
2023/01/10 12:08:04;;;;;;;2.25;1.10;;;23.00;51.30;;;;;;5017445;28;20042;-65
2023/01/10 12:10:31;;;;;;;3.78;1.30;;;23.00;51.40;;;;;;5019909;28;20026;-66
2023/01/10 12:12:59;;;;;;;2.53;1.05;;;22.90;51.40;;;;;;5018342;28;20164;-66
2023/01/10 12:15:27;;;;;;;3.63;1.50;;;22.90;51.50;;;;;;5018547;28;20473;-66
2023/01/10 12:17:56;;;;;;;2.95;1.30;;;22.90;51.50;;;;;;5020620;28;20044;-65
2023/01/10 12:20:22;;;;;;;2.17;1.10;;;22.80;51.50;;;;;;5019648;28;20099;-66
2023/01/10 12:22:57;;;;;;;2.20;1.10;;;22.80;51.60;;;;;;5018240;28;20099;-66
2023/01/10 12:25:42;;;;;;;2.80;1.13;;;22.70;51.60;;;;;;5033029;28;20030;-67
2023/01/10 12:28:23;;;;;;;2.97;1.30;;;22.70;51.80;;;;;;5018090;28;20037;-67
2023/01/10 12:30:50;;;;;;;4.47;1.48;;;22.70;51.90;;;;;;5019564;28;20071;-67
2023/01/10 12:33:23;;;;;;;4.65;1.50;;;22.70;51.90;;;;;;5018624;28;20022;-67
2023/01/10 12:36:12;;;;;;;3.72;1.30;;;22.70;52.00;;;;;;5023837;28;20492;-65
2023/01/10 12:39:05;;;;;;;4.03;1.65;;;22.70;52.00;;;;;;5021104;28;20028;-67
2023/01/10 12:45:13;;;;;;;2.50;0.93;;;22.70;52.80;;;;;;5016465;28;20036;-67
2023/01/10 12:48:01;;;;;;;2.53;1.10;;;22.70;53.10;;;;;;5018975;28;20030;-68
2023/01/10 12:50:40;;;;;;;2.50;0.82;;;22.60;53.40;;;;;;5018478;28;20487;-66
2023/01/10 12:53:09;;;;;;;;;;;22.70;53.40;;;;;;5023926;28;20034;-67
2023/01/10 12:55:39;;;;;;;2.58;1.02;;;22.70;53.30;;;;;;5016679;28;20332;-66
2023/01/10 12:58:11;;;;;;;2.95;1.10;;;22.70;53.60;;;;;;5019779;28;20469;-66
2023/01/10 13:00:41;;;;;;;3.08;1.20;;;22.70;53.60;;;;;;5020655;28;20440;-66
2023/01/10 13:03:14;;;;;;;2.35;0.90;;;22.70;53.80;;;;;;5019096;28;20044;-66
2023/01/10 13:05:40;;;;;;;2.00;0.90;;;22.80;54.20;;;;;;5017240;28;20197;-68
2023/01/10 13:08:13;;;;;;;2.92;1.10;;;22.80;54.10;;;;;;5019158;28;20071;-68
2023/01/10 13:10:46;;;;;;;2.42;0.80;;;22.80;54.40;;;;;;5019730;28;20484;-66
2023/01/10 13:13:30;;;;;;;1.70;0.90;;;22.90;54.70;;;;;;5016783;28;20021;-67
2023/01/10 13:16:43;;;;;;;2.08;0.80;;;22.90;54.90;;;;;;5026775;28;20101;-66